Time;durP1;ratioP1;P1;durP2;ratioP2;P2;SDS_P1;SDS_P2;PMS_P1;PMS_P2;Temp;Humidity;BMP_temperature;BMP_pressure;BME280_temperature;BME280_humidity;BME280_pressure;Samples;Min_cycle;Max_cycle;Signal;HPM_P1;HPM_P2
2023/06/12 00:02:20;;;;;;;4.05;3.15;;;20.50;99.90;;;;;;5008030;28;20532;-80
2023/06/12 00:04:47;;;;;;;3.90;3.40;;;20.40;99.90;;;;;;5003357;28;20046;-80
2023/06/12 00:07:16;;;;;;;4.35;3.35;;;20.40;99.90;;;;;;5003354;28;20048;-80
2023/06/12 00:09:43;;;;;;;4.63;3.65;;;20.40;99.90;;;;;;5004156;28;20052;-79
2023/06/12 00:12:10;;;;;;;6.28;3.30;;;20.30;99.90;;;;;;5005402;28;20159;-80
2023/06/12 00:14:37;;;;;;;3.38;3.03;;;20.30;99.90;;;;;;5003468;28;20061;-80
2023/06/12 00:17:04;;;;;;;5.95;3.22;;;20.20;99.90;;;;;;5012438;28;20093;-80
2023/06/12 00:19:31;;;;;;;5.68;3.17;;;20.20;99.90;;;;;;5014023;28;20084;-81
2023/06/12 00:21:58;;;;;;;3.38;3.00;;;20.20;99.90;;;;;;5009080;28;20046;-80
2023/06/12 00:24:25;;;;;;;5.03;3.40;;;20.20;99.90;;;;;;5010201;28;20088;-80
2023/06/12 00:26:51;;;;;;;6.05;3.25;;;20.20;99.90;;;;;;5006850;28;20120;-80
2023/06/12 00:29:18;;;;;;;4.00;2.97;;;20.20;99.90;;;;;;5011827;28;20065;-81
2023/06/12 00:31:45;;;;;;;6.55;2.90;;;20.20;99.90;;;;;;5009576;28;20070;-81
2023/06/12 00:34:11;;;;;;;3.83;3.10;;;20.10;99.90;;;;;;5020374;28;20148;-79
2023/06/12 00:36:38;;;;;;;3.92;3.10;;;20.10;99.90;;;;;;5000310;28;20486;-80
2023/06/12 00:39:05;;;;;;;4.28;3.00;;;20.00;99.90;;;;;;5006591;28;20129;-79
2023/06/12 00:41:32;;;;;;;4.13;2.78;;;20.00;99.90;;;;;;5006182;28;20117;-81
2023/06/12 00:43:59;;;;;;;5.13;3.10;;;20.00;99.90;;;;;;5006676;28;20078;-80
2023/06/12 00:46:26;;;;;;;3.63;3.17;;;20.00;99.90;;;;;;5007717;28;20042;-81
2023/06/12 00:48:53;;;;;;;3.30;3.00;;;19.90;99.90;;;;;;5010007;28;20056;-81
2023/06/12 00:51:20;;;;;;;4.88;3.17;;;19.90;99.90;;;;;;5011103;28;20068;-80
2023/06/12 00:53:47;;;;;;;4.15;2.95;;;19.90;99.90;;;;;;5010357;28;20097;-81
2023/06/12 00:56:14;;;;;;;4.78;2.85;;;19.90;99.90;;;;;;5007517;28;20141;-79
2023/06/12 00:58:41;;;;;;;5.30;3.17;;;19.80;99.90;;;;;;5011488;28;20042;-81
2023/06/12 01:01:08;;;;;;;6.38;3.30;;;19.80;99.90;;;;;;5011323;28;20050;-80
2023/06/12 01:03:36;;;;;;;4.32;3.10;;;19.80;99.90;;;;;;5004010;28;20085;-80
2023/06/12 01:06:07;;;;;;;3.47;2.78;;;19.70;99.90;;;;;;5001164;28;20072;-80
2023/06/12 01:08:48;;;;;;;4.65;2.97;;;19.70;99.90;;;;;;5015539;28;20038;-80
2023/06/12 01:11:17;;;;;;;5.88;3.10;;;19.70;99.90;;;;;;5010067;28;20045;-80
2023/06/12 01:13:44;;;;;;;3.10;2.85;;;19.70;99.90;;;;;;5013478;28;20051;-81
2023/06/12 01:16:11;;;;;;;3.55;2.90;;;19.60;99.90;;;;;;5009762;28;20085;-81
2023/06/12 01:18:38;;;;;;;4.20;3.00;;;19.60;99.90;;;;;;5009288;28;20073;-80
2023/06/12 01:21:12;;;;;;;3.78;3.20;;;19.60;99.90;;;;;;5009994;28;20084;-83
2023/06/12 01:23:39;;;;;;;4.40;2.75;;;19.60;99.90;;;;;;5007634;28;20053;-80
2023/06/12 01:26:26;;;;;;;5.40;3.05;;;19.60;99.90;;;;;;5007436;28;20070;-80
2023/06/12 01:28:59;;;;;;;3.90;3.28;;;19.60;99.90;;;;;;5002181;28;20072;-80
2023/06/12 01:31:35;;;;;;;3.90;3.33;;;19.60;99.90;;;;;;5005924;28;20572;-81
2023/06/12 01:34:27;;;;;;;3.30;3.00;;;19.60;99.90;;;;;;5003105;28;20064;-80
2023/06/12 01:37:05;;;;;;;3.75;3.15;;;19.60;99.90;;;;;;5000670;28;20054;-80
2023/06/12 01:39:38;;;;;;;3.22;2.92;;;19.50;99.90;;;;;;5005694;28;20092;-80
2023/06/12 01:42:10;;;;;;;4.43;2.80;;;19.50;99.90;;;;;;5014142;28;20054;-81
2023/06/12 01:44:37;;;;;;;4.90;2.88;;;19.50;99.90;;;;;;5004552;28;20530;-80
2023/06/12 01:47:04;;;;;;;4.10;3.10;;;19.50;99.90;;;;;;5009747;28;20049;-80
2023/06/12 01:49:31;;;;;;;3.40;3.03;;;19.40;99.90;;;;;;5009263;28;20413;-80
2023/06/12 01:51:58;;;;;;;4.82;3.47;;;19.40;99.90;;;;;;5007976;28;20050;-80
2023/06/12 01:54:24;;;;;;;3.38;3.08;;;19.40;99.90;;;;;;5006192;28;20068;-81
2023/06/12 01:56:51;;;;;;;4.50;3.70;;;19.40;99.90;;;;;;5001598;28;20064;-80
2023/06/12 01:59:18;;;;;;;3.70;3.30;;;19.40;99.90;;;;;;5006485;28;20089;-80
2023/06/12 02:01:45;;;;;;;3.85;3.17;;;19.40;99.90;;;;;;5002873;28;20125;-80
2023/06/12 02:04:12;;;;;;;6.32;3.50;;;19.40;99.90;;;;;;4999442;28;20124;-80
2023/06/12 02:06:39;;;;;;;4.03;3.38;;;19.30;99.90;;;;;;4998410;28;20045;-80
2023/06/12 02:09:06;;;;;;;5.13;4.05;;;19.30;99.90;;;;;;5006313;28;20085;-81
2023/06/12 02:11:32;;;;;;;3.78;3.38;;;19.30;99.90;;;;;;5004975;28;20042;-79
2023/06/12 02:13:59;;;;;;;4.30;2.97;;;19.30;99.90;;;;;;5003684;28;20422;-80
2023/06/12 02:16:27;;;;;;;3.90;3.40;;;19.20;99.90;;;;;;5009483;28;20120;-80
2023/06/12 02:18:54;;;;;;;4.38;3.22;;;19.20;99.90;;;;;;5008576;28;20050;-80
2023/06/12 02:21:22;;;;;;;3.38;3.08;;;19.20;99.90;;;;;;5010689;28;20046;-80
2023/06/12 02:23:49;;;;;;;4.03;3.10;;;19.10;99.90;;;;;;5010422;28;20530;-81
2023/06/12 02:26:16;;;;;;;3.30;3.00;;;19.10;99.90;;;;;;5007424;28;20053;-80
2023/06/12 02:28:43;;;;;;;3.90;3.00;;;19.10;99.90;;;;;;5007376;28;20038;-79
2023/06/12 02:31:10;;;;;;;3.20;2.80;;;19.10;99.90;;;;;;5016147;28;20057;-80
2023/06/12 02:33:39;;;;;;;3.50;3.10;;;19.00;99.90;;;;;;5004402;28;20077;-79
2023/06/12 02:36:07;;;;;;;3.25;2.95;;;19.00;99.90;;;;;;5012427;28;20078;-81
2023/06/12 02:38:35;;;;;;;4.95;3.42;;;19.00;99.90;;;;;;5010248;28;20053;-79
2023/06/12 02:41:01;;;;;;;4.93;3.45;;;18.90;99.90;;;;;;5008783;28;20058;-80
2023/06/12 02:43:28;;;;;;;4.30;3.45;;;18.90;99.90;;;;;;5006684;28;20137;-80
2023/06/12 02:45:55;;;;;;;4.75;3.35;;;18.90;99.90;;;;;;5009562;28;20073;-80
2023/06/12 02:48:21;;;;;;;5.50;3.33;;;18.90;99.90;;;;;;5009426;28;20049;-80
2023/06/12 02:50:48;;;;;;;4.15;3.10;;;18.80;99.90;;;;;;5011398;28;20046;-80
2023/06/12 02:53:15;;;;;;;3.10;2.80;;;18.80;99.90;;;;;;5010571;28;20054;-79
2023/06/12 02:55:44;;;;;;;3.75;3.35;;;18.80;99.90;;;;;;5007028;28;20105;-80
2023/06/12 02:58:11;;;;;;;4.88;3.47;;;18.70;99.90;;;;;;5001837;28;20046;-80
2023/06/12 03:00:37;;;;;;;4.65;3.40;;;18.70;99.90;;;;;;5005077;28;20422;-80
2023/06/12 03:03:05;;;;;;;5.60;3.55;;;18.70;99.90;;;;;;5004325;28;20065;-80
2023/06/12 03:05:32;;;;;;;7.70;3.40;;;18.60;99.90;;;;;;5000778;28;20052;-80
2023/06/12 03:08:02;;;;;;;4.05;3.42;;;18.60;99.90;;;;;;5009089;28;20089;-80
2023/06/12 03:10:29;;;;;;;4.03;3.08;;;18.60;99.90;;;;;;5008352;28;20417;-81
2023/06/12 03:12:56;;;;;;;3.60;3.30;;;18.50;99.90;;;;;;5009270;28;20100;-79
2023/06/12 03:15:24;;;;;;;4.93;3.13;;;18.50;99.90;;;;;;5011049;28;20096;-80
2023/06/12 03:17:50;;;;;;;4.35;3.35;;;18.50;99.90;;;;;;5009778;28;20054;-81
2023/06/12 03:20:17;;;;;;;18.38;3.80;;;18.40;99.90;;;;;;5010339;28;20050;-80
2023/06/12 03:22:44;;;;;;;14.52;3.67;;;18.40;99.90;;;;;;5011647;28;20045;-81
2023/06/12 03:25:11;;;;;;;9.38;3.03;;;18.30;99.90;;;;;;5007096;28;20046;-79
2023/06/12 03:27:38;;;;;;;5.90;3.55;;;18.30;99.90;;;;;;5001544;28;20046;-81
2023/06/12 03:30:05;;;;;;;6.97;3.33;;;18.30;99.90;;;;;;5006025;28;20050;-80
2023/06/12 03:32:32;;;;;;;5.60;3.38;;;18.30;99.90;;;;;;5005841;28;20041;-80
2023/06/12 03:34:59;;;;;;;4.90;3.15;;;18.30;99.90;;;;;;5003424;28;20050;-79
2023/06/12 03:37:28;;;;;;;3.63;2.95;;;18.20;99.90;;;;;;5005760;28;20045;-80
2023/06/12 03:39:55;;;;;;;3.55;2.92;;;18.20;99.90;;;;;;5010496;28;20053;-80
2023/06/12 03:42:22;;;;;;;5.43;3.40;;;18.20;99.90;;;;;;5024127;28;20057;-80
2023/06/12 03:44:48;;;;;;;4.55;2.88;;;18.20;99.90;;;;;;5008591;28;20506;-80
2023/06/12 03:47:15;;;;;;;5.35;3.08;;;18.10;99.90;;;;;;5008767;28;20125;-79
2023/06/12 03:49:42;;;;;;;5.97;3.10;;;18.10;99.90;;;;;;5004201;28;20056;-80
2023/06/12 03:52:09;;;;;;;3.78;2.90;;;18.10;99.90;;;;;;5012047;28;20073;-80
2023/06/12 03:54:36;;;;;;;4.53;3.33;;;18.00;99.90;;;;;;5006440;28;20052;-80
2023/06/12 03:57:03;;;;;;;4.88;3.17;;;18.00;99.90;;;;;;5002716;28;20054;-80
2023/06/12 03:59:30;;;;;;;3.30;3.00;;;18.00;99.90;;;;;;5001990;28;20468;-79
2023/06/12 04:01:58;;;;;;;5.10;3.45;;;18.00;99.90;;;;;;5004548;28;20100;-80
2023/06/12 04:04:25;;;;;;;5.00;3.63;;;18.00;99.90;;;;;;5005442;28;20049;-80
2023/06/12 04:06:53;;;;;;;3.25;2.95;;;18.00;99.90;;;;;;5003019;28;20410;-80
2023/06/12 04:09:20;;;;;;;3.40;2.70;;;18.00;99.90;;;;;;5011990;28;20050;-79
2023/06/12 04:11:46;;;;;;;3.92;3.05;;;18.00;99.90;;;;;;5008971;28;20509;-79
2023/06/12 04:14:13;;;;;;;3.42;3.05;;;18.00;99.90;;;;;;5008727;28;20124;-79
2023/06/12 04:16:40;;;;;;;6.43;2.97;;;18.00;99.90;;;;;;5008631;28;20049;-80
2023/06/12 04:19:07;;;;;;;4.78;3.30;;;18.00;99.90;;;;;;5003986;28;20112;-78
2023/06/12 04:21:35;;;;;;;6.43;3.95;;;18.00;99.90;;;;;;5012300;28;20133;-79
2023/06/12 04:24:04;;;;;;;3.78;2.95;;;18.10;99.90;;;;;;5006233;28;20105;-79
2023/06/12 04:26:31;;;;;;;6.53;4.30;;;18.10;99.90;;;;;;5001222;28;20045;-79
2023/06/12 04:29:02;;;;;;;5.03;3.05;;;18.10;99.90;;;;;;4997758;28;20518;-79
2023/06/12 04:31:30;;;;;;;3.63;3.03;;;18.10;99.90;;;;;;5007543;28;20498;-79
2023/06/12 04:33:57;;;;;;;3.92;2.80;;;18.10;99.90;;;;;;5003665;28;20052;-81
2023/06/12 04:36:23;;;;;;;4.70;3.58;;;18.20;99.90;;;;;;5003216;28;20061;-79
2023/06/12 04:38:50;;;;;;;4.65;3.47;;;18.20;99.90;;;;;;5007167;28;20050;-79
2023/06/12 04:41:24;;;;;;;7.57;3.55;;;18.20;99.90;;;;;;5009119;28;20133;-79
2023/06/12 04:43:58;;;;;;;4.10;3.10;;;18.20;99.90;;;;;;5006487;28;20042;-80
2023/06/12 04:46:28;;;;;;;4.20;3.15;;;18.20;99.90;;;;;;5008194;28;20042;-79
2023/06/12 04:48:55;;;;;;;3.15;2.80;;;18.30;99.90;;;;;;5003539;28;20054;-79
2023/06/12 04:51:23;;;;;;;8.43;3.47;;;18.30;99.90;;;;;;5004975;28;20046;-79
2023/06/12 04:53:53;;;;;;;4.28;3.45;;;18.50;99.90;;;;;;5004325;28;20046;-79
2023/06/12 04:56:21;;;;;;;4.77;3.40;;;18.60;99.90;;;;;;5002069;28;20054;-79
2023/06/12 04:58:49;;;;;;;3.75;2.90;;;18.70;99.90;;;;;;4999021;28;20525;-79
2023/06/12 05:01:19;;;;;;;4.03;2.97;;;18.90;99.90;;;;;;5011722;28;20056;-79
2023/06/12 05:03:46;;;;;;;3.90;2.63;;;19.10;99.90;;;;;;5005688;28;20100;-80
2023/06/12 05:06:13;;;;;;;3.03;2.67;;;19.20;99.90;;;;;;5004955;28;20054;-80
2023/06/12 05:08:41;;;;;;;5.07;3.08;;;19.40;99.90;;;;;;5006288;28;20072;-80
2023/06/12 05:11:08;;;;;;;5.18;2.60;;;19.60;99.90;;;;;;5009361;28;20490;-80
2023/06/12 05:13:35;;;;;;;4.57;3.22;;;19.70;99.90;;;;;;5008799;28;20045;-80
2023/06/12 05:16:01;;;;;;;5.60;4.38;;;19.90;99.90;;;;;;5007689;28;20050;-81
2023/06/12 05:18:28;;;;;;;5.85;4.25;;;20.10;99.90;;;;;;5004581;28;20593;-80
2023/06/12 05:20:58;;;;;;;5.82;3.15;;;20.20;99.90;;;;;;5005008;28;20046;-80
2023/06/12 05:23:25;;;;;;;4.57;3.10;;;20.30;99.90;;;;;;5022815;28;20058;-80
2023/06/12 05:25:51;;;;;;;7.63;3.85;;;20.50;99.90;;;;;;5001177;28;20047;-80
2023/06/12 05:28:18;;;;;;;4.95;4.15;;;20.50;99.90;;;;;;4999916;28;20046;-80
2023/06/12 05:30:47;;;;;;;4.43;3.30;;;20.70;99.90;;;;;;5007321;28;20065;-80
2023/06/12 05:33:14;;;;;;;5.00;3.72;;;20.70;99.90;;;;;;5006709;28;20053;-80
2023/06/12 05:35:41;;;;;;;4.63;4.13;;;20.80;99.90;;;;;;5004560;28;20120;-80
2023/06/12 05:38:08;;;;;;;5.25;3.83;;;20.90;99.90;;;;;;5009363;28;20057;-80
2023/06/12 05:40:35;;;;;;;6.15;4.15;;;20.90;99.90;;;;;;5009194;28;20414;-80
2023/06/12 05:43:01;;;;;;;4.90;4.40;;;21.00;99.90;;;;;;5010391;28;20054;-81
2023/06/12 05:45:28;;;;;;;6.90;4.60;;;21.00;99.90;;;;;;5009895;28;20104;-80
2023/06/12 05:47:55;;;;;;;5.85;4.25;;;21.00;99.90;;;;;;5003336;28;20042;-80
2023/06/12 05:50:22;;;;;;;7.38;4.85;;;20.90;99.90;;;;;;5002169;28;20049;-80
2023/06/12 05:52:49;;;;;;;5.20;4.50;;;20.90;99.90;;;;;;5010312;28;20986;-80
2023/06/12 05:55:17;;;;;;;12.20;4.47;;;20.90;99.90;;;;;;5003666;28;20514;-80
2023/06/12 05:57:43;;;;;;;6.40;4.65;;;20.80;99.90;;;;;;5003135;28;20105;-80
2023/06/12 06:00:12;;;;;;;5.65;4.38;;;20.80;99.90;;;;;;5008632;28;20050;-81
2023/06/12 06:02:39;;;;;;;4.82;4.07;;;20.80;99.90;;;;;;5011747;28;20074;-80
2023/06/12 06:05:09;;;;;;;4.68;4.00;;;20.80;99.90;;;;;;5009193;28;20049;-80
2023/06/12 06:07:37;;;;;;;6.50;4.10;;;20.70;99.90;;;;;;5010277;28;20050;-81
2023/06/12 06:10:07;;;;;;;5.85;4.55;;;20.70;99.90;;;;;;5010238;28;20050;-80
2023/06/12 06:12:34;;;;;;;12.00;5.45;;;20.60;99.90;;;;;;5013428;28;20046;-80
2023/06/12 06:15:01;;;;;;;9.18;6.20;;;20.60;99.90;;;;;;5012705;28;20050;-79
2023/06/12 06:17:28;;;;;;;9.38;5.93;;;20.60;99.90;;;;;;5008923;28;20089;-79
2023/06/12 06:19:55;;;;;;;13.57;6.35;;;20.60;99.90;;;;;;5002919;28;20077;-79
2023/06/12 06:22:24;;;;;;;13.10;6.18;;;20.60;99.90;;;;;;5013203;28;20050;-80
2023/06/12 06:24:52;;;;;;;9.07;6.03;;;20.60;99.90;;;;;;5005740;28;20047;-79
2023/06/12 06:27:18;;;;;;;11.75;7.40;;;20.60;99.90;;;;;;5004625;28;20277;-80
2023/06/12 06:29:45;;;;;;;10.20;6.72;;;20.60;99.90;;;;;;5005437;28;20046;-80
2023/06/12 06:32:12;;;;;;;9.02;6.18;;;20.60;99.90;;;;;;5012456;28;20050;-79
2023/06/12 06:34:39;;;;;;;9.57;6.78;;;20.60;99.90;;;;;;5009962;28;20058;-80
2023/06/12 06:37:06;;;;;;;14.18;6.78;;;20.60;99.90;;;;;;5011144;28;20108;-80
2023/06/12 06:39:34;;;;;;;7.68;6.45;;;20.60;99.90;;;;;;5010276;28;20054;-80
2023/06/12 06:42:01;;;;;;;8.07;6.35;;;20.60;99.90;;;;;;5010858;28;20407;-79
2023/06/12 06:44:27;;;;;;;11.20;6.35;;;20.70;99.90;;;;;;5014782;28;20054;-80
2023/06/12 06:46:55;;;;;;;8.95;6.10;;;20.70;99.90;;;;;;5008836;28;20046;-80
2023/06/12 06:49:22;;;;;;;10.15;6.47;;;20.70;99.90;;;;;;5004913;28;20050;-80
2023/06/12 06:51:49;;;;;;;13.45;7.35;;;20.70;99.90;;;;;;5004150;28;20054;-80
2023/06/12 06:54:16;;;;;;;9.20;6.95;;;20.70;99.90;;;;;;5006987;28;20050;-80
2023/06/12 06:56:43;;;;;;;10.40;6.40;;;20.70;99.90;;;;;;5004759;28;20053;-80
2023/06/12 06:59:09;;;;;;;9.65;6.93;;;20.70;99.90;;;;;;5003434;28;20061;-80
2023/06/12 07:01:37;;;;;;;10.68;7.53;;;20.70;99.90;;;;;;5013096;28;20053;-80
2023/06/12 07:04:04;;;;;;;10.27;7.30;;;20.80;99.90;;;;;;5009761;28;20073;-80
2023/06/12 07:06:33;;;;;;;11.05;7.72;;;20.80;99.90;;;;;;5010169;28;20701;-80
2023/06/12 07:09:00;;;;;;;8.32;7.28;;;20.80;99.90;;;;;;5009681;28;20387;-81
2023/06/12 07:11:28;;;;;;;9.07;7.30;;;20.80;99.90;;;;;;5007944;28;20054;-79
2023/06/12 07:13:55;;;;;;;9.48;6.68;;;20.80;99.90;;;;;;5013716;28;20414;-79
2023/06/12 07:16:22;;;;;;;10.82;7.63;;;20.80;99.90;;;;;;5008510;28;20069;-79
2023/06/12 07:18:49;;;;;;;9.85;8.00;;;20.90;99.90;;;;;;5002183;28;20058;-80
2023/06/12 07:21:17;;;;;;;19.17;9.88;;;20.90;99.90;;;;;;5000795;28;20491;-79
2023/06/12 07:23:44;;;;;;;9.32;8.00;;;20.80;99.90;;;;;;5007921;28;20045;-80
2023/06/12 07:26:11;;;;;;;10.23;7.40;;;20.80;99.90;;;;;;5014687;28;20046;-80
2023/06/12 07:28:54;;;;;;;9.35;7.75;;;20.90;99.90;;;;;;5003447;28;20309;-79
2023/06/12 07:31:26;;;;;;;10.07;7.63;;;20.90;99.90;;;;;;5013233;28;20503;-80
2023/06/12 07:33:53;;;;;;;8.02;5.95;;;20.90;99.90;;;;;;5010243;28;20116;-80
2023/06/12 07:36:20;;;;;;;7.68;6.50;;;21.00;99.90;;;;;;5010625;28;20058;-80
2023/06/12 07:38:46;;;;;;;13.63;6.25;;;21.00;99.90;;;;;;5009886;28;20058;-80
2023/06/12 07:41:13;;;;;;;10.07;5.63;;;21.00;99.90;;;;;;5006920;28;20129;-80
2023/06/12 07:43:40;;;;;;;6.20;4.63;;;21.10;99.90;;;;;;5015561;28;20054;-80
2023/06/12 07:46:06;;;;;;;6.07;5.00;;;21.10;99.90;;;;;;5006857;28;20077;-80
2023/06/12 07:48:33;;;;;;;6.90;5.40;;;21.10;99.90;;;;;;5002989;28;20128;-80
2023/06/12 07:51:00;;;;;;;7.72;5.60;;;21.20;99.90;;;;;;4999813;28;20053;-79
2023/06/12 07:53:27;;;;;;;8.20;5.05;;;21.20;99.90;;;;;;5008250;28;20109;-79
2023/06/12 07:56:06;;;;;;;10.32;5.70;;;21.20;99.90;;;;;;5005617;28;20580;-80
2023/06/12 07:58:37;;;;;;;9.60;4.97;;;21.30;99.90;;;;;;5007490;28;20138;-80
2023/06/12 08:01:04;;;;;;;9.15;5.75;;;21.30;99.90;;;;;;5012464;28;20417;-81
2023/06/12 08:03:38;;;;;;;5.93;4.57;;;21.40;99.90;;;;;;5009476;28;20046;-80
2023/06/12 08:06:09;;;;;;;8.43;4.55;;;21.40;99.90;;;;;;5009649;28;20046;-80
2023/06/12 08:08:47;;;;;;;9.25;4.82;;;21.50;99.90;;;;;;5010201;28;20076;-80
2023/06/12 08:11:16;;;;;;;12.57;4.63;;;21.60;99.90;;;;;;5005921;28;20046;-80
2023/06/12 08:13:43;;;;;;;4.60;3.87;;;21.60;99.90;;;;;;5015492;28;20092;-80
2023/06/12 08:16:10;;;;;;;12.15;4.40;;;21.70;99.90;;;;;;5021502;28;20182;-81
2023/06/12 08:18:37;;;;;;;8.68;4.68;;;21.80;99.90;;;;;;5004033;28;20046;-81
2023/06/12 08:21:03;;;;;;;8.80;4.30;;;21.80;99.90;;;;;;4999254;28;20054;-80
2023/06/12 08:23:30;;;;;;;6.85;4.40;;;21.90;99.90;;;;;;5008605;28;20054;-80
2023/06/12 08:25:57;;;;;;;8.32;4.05;;;22.00;99.90;;;;;;5006577;28;20046;-80
2023/06/12 08:28:24;;;;;;;5.78;4.43;;;22.00;99.90;;;;;;5006327;28;20082;-80
2023/06/12 08:30:50;;;;;;;8.52;4.50;;;22.00;99.90;;;;;;5011567;28;20049;-78
2023/06/12 08:33:18;;;;;;;11.40;4.20;;;22.10;99.90;;;;;;5009444;28;20049;-81
2023/06/12 08:35:46;;;;;;;6.38;4.38;;;22.20;99.90;;;;;;5009704;28;20042;-81
2023/06/12 08:38:13;;;;;;;7.28;4.10;;;22.20;99.90;;;;;;5009407;28;20061;-80
2023/06/12 08:40:39;;;;;;;6.88;4.30;;;22.30;99.90;;;;;;5005690;28;20077;-79
2023/06/12 08:43:06;;;;;;;5.43;4.25;;;22.30;99.90;;;;;;5007462;28;20057;-80
2023/06/12 08:45:37;;;;;;;4.10;3.60;;;22.40;99.90;;;;;;5008108;28;20047;-80
2023/06/12 08:48:06;;;;;;;7.85;4.30;;;22.50;99.90;;;;;;5004319;28;20097;-79
2023/06/12 08:50:34;;;;;;;4.18;3.33;;;22.60;99.90;;;;;;5000365;28;20081;-79
2023/06/12 08:53:03;;;;;;;6.53;3.65;;;22.70;99.90;;;;;;5009629;28;20422;-80
2023/06/12 08:55:32;;;;;;;5.65;3.47;;;22.80;99.90;;;;;;5007862;28;20523;-81
2023/06/12 08:58:00;;;;;;;4.13;3.67;;;22.90;99.90;;;;;;5005390;28;20054;-80
2023/06/12 09:00:27;;;;;;;4.75;3.60;;;22.90;99.90;;;;;;5010146;28;20054;-80
2023/06/12 09:02:56;;;;;;;7.70;3.42;;;23.00;99.90;;;;;;5009299;28;20049;-80
2023/06/12 09:05:29;;;;;;;6.63;3.17;;;23.10;99.90;;;;;;5009428;28;20050;-80
2023/06/12 09:08:00;;;;;;;11.82;3.33;;;23.20;99.90;;;;;;5009282;28;20041;-81
2023/06/12 09:10:27;;;;;;;6.07;3.60;;;23.30;99.90;;;;;;5006622;28;20050;-81
2023/06/12 09:12:55;;;;;;;5.20;3.40;;;23.40;99.90;;;;;;5009454;28;20045;-80
2023/06/12 09:15:22;;;;;;;5.20;3.15;;;23.40;99.90;;;;;;5024632;28;20054;-81
2023/06/12 09:17:51;;;;;;;3.67;2.90;;;23.50;99.90;;;;;;5005328;28;20049;-81
2023/06/12 09:20:33;;;;;;;4.35;3.53;;;23.60;99.90;;;;;;5003443;28;20050;-78
2023/06/12 09:23:09;;;;;;;4.80;3.33;;;23.60;99.90;;;;;;5002924;28;20054;-77
2023/06/12 09:25:41;;;;;;;4.00;3.20;;;23.60;99.90;;;;;;5004338;28;20050;-78
2023/06/12 09:28:15;;;;;;;8.15;3.28;;;23.60;99.90;;;;;;5001453;28;20422;-78
2023/06/12 09:30:43;;;;;;;6.18;3.38;;;23.70;99.60;;;;;;5005801;28;20093;-78
2023/06/12 09:33:10;;;;;;;6.07;3.30;;;23.80;98.60;;;;;;5008114;28;20098;-78
2023/06/12 09:35:53;;;;;;;4.15;3.22;;;23.90;98.70;;;;;;5010548;28;20506;-79
2023/06/12 09:38:31;;;;;;;4.32;3.00;;;23.90;97.80;;;;;;5006560;28;20510;-78
2023/06/12 09:40:58;;;;;;;3.72;3.13;;;24.00;98.40;;;;;;5006578;28;20050;-78
2023/06/12 09:43:28;;;;;;;4.45;2.45;;;24.00;98.90;;;;;;5006534;28;20049;-79
2023/06/12 09:45:57;;;;;;;;;;;24.10;98.00;;;;;;5004577;28;20510;-78
2023/06/12 09:48:30;;;;;;;4.03;2.88;;;24.20;97.80;;;;;;5002712;28;19921;-77
2023/06/12 09:50:58;;;;;;;3.10;2.60;;;24.20;98.00;;;;;;5000603;28;20046;-79
2023/06/12 09:53:26;;;;;;;2.83;2.38;;;24.40;97.30;;;;;;5009728;28;20082;-78
2023/06/12 09:55:53;;;;;;;7.85;2.80;;;24.50;96.50;;;;;;5004813;28;20043;-79
2023/06/12 09:58:20;;;;;;;3.30;2.80;;;24.50;96.60;;;;;;5005977;28;20078;-79
2023/06/12 10:00:48;;;;;;;4.85;3.13;;;24.60;96.80;;;;;;5009238;28;20042;-78
2023/06/12 10:03:17;;;;;;;3.42;2.85;;;24.70;96.40;;;;;;5010238;28;20422;-81
2023/06/12 10:05:50;;;;;;;4.38;2.95;;;24.70;96.80;;;;;;5014027;28;20038;-79
2023/06/12 10:08:18;;;;;;;4.15;2.72;;;24.70;96.80;;;;;;5005360;28;20494;-78
2023/06/12 10:10:45;;;;;;;2.65;2.45;;;25.00;95.10;;;;;;5002974;28;20124;-78
2023/06/12 10:13:13;;;;;;;4.53;2.58;;;25.00;94.90;;;;;;5005215;28;20046;-78
2023/06/12 10:15:40;;;;;;;3.28;2.92;;;25.00;94.80;;;;;;5006279;28;20050;-79
2023/06/12 10:18:10;;;;;;;3.88;2.70;;;25.00;95.30;;;;;;5003922;28;20097;-79
2023/06/12 10:20:37;;;;;;;3.50;2.45;;;25.00;95.20;;;;;;5002287;28;20061;-78
2023/06/12 10:23:05;;;;;;;2.97;2.20;;;25.20;92.80;;;;;;5012452;28;20057;-81
2023/06/12 10:25:33;;;;;;;2.50;2.17;;;25.20;93.00;;;;;;5013747;28;20427;-81
2023/06/12 10:28:01;;;;;;;3.65;2.28;;;25.20;92.40;;;;;;5010714;28;20065;-80
2023/06/12 10:30:27;;;;;;;4.82;2.30;;;25.20;92.20;;;;;;5026678;28;20078;-81
2023/06/12 10:32:54;;;;;;;3.40;2.22;;;25.30;91.90;;;;;;5010271;28;20079;-82
2023/06/12 10:35:30;;;;;;;2.40;2.20;;;25.30;92.10;;;;;;5014445;28;20045;-82
2023/06/12 10:37:57;;;;;;;3.40;2.20;;;25.30;92.00;;;;;;5009677;28;20050;-81
2023/06/12 10:40:24;;;;;;;4.70;2.78;;;25.30;93.10;;;;;;5007420;28;20077;-81
2023/06/12 10:43:12;;;;;;;7.78;3.65;;;25.30;97.00;;;;;;5002236;28;20065;-81
2023/06/12 10:45:38;;;;;;;5.25;3.83;;;25.30;98.80;;;;;;5006746;28;20050;-82
2023/06/12 10:48:05;;;;;;;5.15;3.53;;;25.30;98.70;;;;;;5001075;28;20525;-81
2023/06/12 10:50:37;;;;;;;4.72;3.60;;;25.40;99.00;;;;;;5005405;28;20073;-79
2023/06/12 10:53:05;;;;;;;4.95;3.53;;;25.40;98.90;;;;;;5014171;28;20495;-79
2023/06/12 10:55:36;;;;;;;5.82;3.20;;;25.40;98.20;;;;;;5011186;28;20049;-79
2023/06/12 10:58:06;;;;;;;4.65;3.53;;;25.40;98.70;;;;;;5007909;28;20046;-79
2023/06/12 11:00:36;;;;;;;3.20;2.77;;;25.40;98.30;;;;;;5010041;28;20082;-79
2023/06/12 11:03:07;;;;;;;6.85;3.30;;;25.40;98.00;;;;;;5006911;28;20507;-80
2023/06/12 11:05:34;;;;;;;7.43;3.20;;;25.40;98.70;;;;;;5013955;28;20049;-80
2023/06/12 11:08:06;;;;;;;4.38;2.83;;;25.40;97.80;;;;;;5008509;28;20092;-79
2023/06/12 11:10:35;;;;;;;3.25;2.95;;;25.50;96.50;;;;;;5006629;28;20050;-81
2023/06/12 11:13:02;;;;;;;4.28;3.58;;;25.50;96.60;;;;;;5000930;28;20046;-78
2023/06/12 11:15:39;;;;;;;3.33;2.70;;;25.50;96.50;;;;;;5008260;28;20080;-79
2023/06/12 11:18:06;;;;;;;5.60;3.55;;;25.50;96.40;;;;;;5006113;28;20124;-79
2023/06/12 11:20:33;;;;;;;4.43;3.08;;;25.60;96.00;;;;;;5005604;28;20491;-78
2023/06/12 11:23:01;;;;;;;3.65;3.35;;;25.70;95.60;;;;;;5013291;28;20057;-78
2023/06/12 11:25:42;;;;;;;4.75;2.90;;;25.70;95.10;;;;;;5011022;28;20050;-79
2023/06/12 11:28:12;;;;;;;3.42;2.55;;;25.70;95.50;;;;;;5011321;28;20100;-78
2023/06/12 11:30:42;;;;;;;4.57;3.30;;;25.70;94.50;;;;;;5009952;28;20125;-78
2023/06/12 11:33:32;;;;;;;2.90;2.60;;;25.70;94.60;;;;;;5007048;28;20454;-79
2023/06/12 11:35:59;;;;;;;;;;;25.80;94.60;;;;;;5010386;28;20054;-78
2023/06/12 11:38:26;;;;;;;2.67;2.47;;;25.70;94.30;;;;;;5006338;28;19929;-79
2023/06/12 11:40:56;;;;;;;3.47;3.13;;;25.80;94.00;;;;;;5002555;28;20106;-78
2023/06/12 11:43:24;;;;;;;4.65;2.80;;;25.80;94.50;;;;;;4999672;28;20050;-78
2023/06/12 11:45:52;;;;;;;3.10;2.80;;;25.90;94.10;;;;;;5004722;28;20047;-78
2023/06/12 11:48:19;;;;;;;5.60;3.40;;;25.90;93.40;;;;;;5005887;28;20050;-80
2023/06/12 11:50:51;;;;;;;6.72;2.80;;;26.00;94.00;;;;;;5004958;28;20060;-79
2023/06/12 11:53:20;;;;;;;6.47;3.17;;;26.00;93.40;;;;;;5011086;28;20046;-78
2023/06/12 11:55:58;;;;;;;6.13;3.20;;;26.00;93.10;;;;;;5011661;28;20049;-78
2023/06/12 11:58:41;;;;;;;4.88;3.00;;;26.10;93.10;;;;;;5009535;28;20054;-79
2023/06/12 12:01:10;;;;;;;3.38;2.85;;;26.10;92.70;;;;;;5008315;28;20462;-78
2023/06/12 12:03:39;;;;;;;4.70;3.13;;;26.10;92.30;;;;;;5005083;28;20133;-80
2023/06/12 12:06:06;;;;;;;5.80;3.40;;;26.10;93.00;;;;;;5012684;28;20473;-78
2023/06/12 12:08:34;;;;;;;3.90;3.20;;;26.20;92.50;;;;;;5005900;28;20106;-78
2023/06/12 12:11:34;;;;;;;4.57;3.08;;;26.20;92.00;;;;;;4999417;28;20523;-80
2023/06/12 12:14:03;;;;;;;4.23;3.30;;;26.20;92.90;;;;;;4993487;28;20046;-79
2023/06/12 12:16:38;;;;;;;5.30;3.30;;;26.20;92.10;;;;;;5007609;28;20081;-80
2023/06/12 12:19:25;;;;;;;6.47;3.30;;;26.20;93.20;;;;;;5003691;28;20105;-79
2023/06/12 12:21:54;;;;;;;3.75;2.78;;;26.20;93.90;;;;;;5009415;28;20585;-78
2023/06/12 12:24:21;;;;;;;3.90;3.07;;;26.30;92.50;;;;;;5008600;28;20049;-79
2023/06/12 12:26:53;;;;;;;5.82;3.15;;;26.40;92.40;;;;;;5011172;28;20328;-78
2023/06/12 12:29:21;;;;;;;4.20;3.00;;;26.50;92.50;;;;;;5009551;28;20046;-78
2023/06/12 12:31:48;;;;;;;9.88;3.80;;;26.50;92.50;;;;;;5007391;28;20080;-79
2023/06/12 12:34:15;;;;;;;9.52;3.53;;;26.50;92.60;;;;;;5001874;28;20117;-78
2023/06/12 12:36:42;;;;;;;6.90;3.60;;;26.50;92.80;;;;;;5010332;28;20050;-79
2023/06/12 12:39:09;;;;;;;8.52;3.72;;;26.60;93.00;;;;;;5002626;28;20057;-80
2023/06/12 12:41:36;;;;;;;5.45;3.70;;;26.70;93.70;;;;;;5001245;28;20054;-79
2023/06/12 12:44:03;;;;;;;4.60;3.17;;;26.70;93.20;;;;;;5003698;28;20053;-79
2023/06/12 12:46:30;;;;;;;3.78;3.42;;;26.80;92.20;;;;;;5009303;28;20054;-81
2023/06/12 12:48:57;;;;;;;5.20;3.20;;;26.70;92.40;;;;;;5005994;28;20407;-78
2023/06/12 12:51:24;;;;;;;5.82;2.97;;;26.80;93.00;;;;;;5007906;28;20042;-80
2023/06/12 12:53:51;;;;;;;3.67;3.38;;;26.80;93.00;;;;;;5008578;28;20041;-79